Aviation Digital Data Service (ADDS)

Output produced by METARs form (2319 UTC 23 October 2019)
found at http://www.aviationweather.gov/metar/data/
 
Forecast for: LTFJ (SABIHA GOKCEN , TR)
Text: TAF LTFJ 232240Z 2400/2424 03006KT 9999 SCT025
Forecast period: 0000 to 0800 UTC 24 October 2019
Forecast type: FROM: standard forecast or significant change
Winds: from the NNE (30 degrees) at 7 MPH (6 knots; 3.1 m/s)
Visibility: 6 or more miles 10+ km)
Ceiling: at least 12,000 feet AGL
Clouds: scattered clouds at 2500 feet AGL
Weather: no significant weather forecast for this period
Text: BECMG 2408/2411 03016KT CAVOK
Forecast period: 0800 to 1500 UTC 24 October 2019
Forecast type: BECOMING: Conditions expected to become as follows by 1100 UTC 24 October 2019
Winds: from the NNE (30 degrees) at 18 MPH (16 knots; 8.2 m/s)
Visibility: 6 or more miles 10+ km)
Ceiling: unknown
Clouds: missing
Weather: NSW  (no significant weather)
Text: BECMG 2415/2418 03006KT FEW025
Forecast period: 1500 UTC 24 October 2019 to 0000 UTC 25 October 2019
Forecast type: BECOMING: Conditions expected to become as follows by 1800 UTC 24 October 2019
Winds: from the NNE (30 degrees) at 7 MPH (6 knots; 3.1 m/s)
Visibility: 6 or more miles 10+ km)
Ceiling: at least 12,000 feet AGL
Clouds: few clouds at 2500 feet AGL
Weather: NSW  (no significant weather)